createdAt,value
2022-10-24T00:01:23.942Z,16.50
2022-10-24T00:03:51.585Z,16.60
2022-10-24T00:06:20.098Z,16.60
2022-10-24T00:08:48.025Z,16.50
2022-10-24T00:11:25.477Z,16.50
2022-10-24T00:13:54.252Z,16.50
2022-10-24T00:16:21.853Z,16.50
2022-10-24T00:18:49.206Z,16.60
2022-10-24T00:21:16.705Z,16.50
2022-10-24T00:23:44.107Z,16.50
2022-10-24T00:26:12.623Z,16.50
2022-10-24T00:28:41.388Z,16.50
2022-10-24T00:31:12.567Z,16.50
2022-10-24T00:33:40.171Z,16.40
2022-10-24T00:36:12.289Z,16.50
2022-10-24T00:38:40.074Z,16.40
2022-10-24T00:41:08.008Z,16.40
2022-10-24T00:43:35.355Z,16.40
2022-10-24T00:46:03.653Z,16.40
2022-10-24T00:48:45.622Z,16.40
2022-10-24T00:51:27.975Z,16.30
2022-10-24T00:54:01.271Z,16.30
2022-10-24T00:56:34.894Z,16.20
2022-10-24T00:59:05.246Z,16.20
2022-10-24T01:01:34.468Z,16.10
2022-10-24T01:04:01.929Z,16.00
2022-10-24T01:07:02.886Z,16.00
2022-10-24T01:10:08.515Z,15.90
2022-10-24T01:13:11.191Z,15.80
2022-10-24T01:15:59.746Z,15.90
2022-10-24T01:18:39.788Z,15.90
2022-10-24T01:21:25.174Z,16.00
2022-10-24T01:24:24.608Z,16.00
2022-10-24T01:29:50.397Z,15.90
2022-10-24T01:32:36.218Z,15.90
2022-10-24T01:35:26.210Z,15.90
2022-10-24T01:38:01.929Z,15.90
2022-10-24T01:40:35.125Z,15.80
2022-10-24T01:43:14.194Z,15.80
2022-10-24T01:45:45.089Z,15.80
2022-10-24T01:48:17.734Z,15.70
2022-10-24T01:50:49.498Z,15.70
2022-10-24T01:53:18.207Z,15.70
2022-10-24T01:55:48.790Z,15.70
2022-10-24T01:58:16.014Z,15.60
2022-10-24T02:00:45.277Z,15.70
2022-10-24T02:03:22.826Z,15.60
2022-10-24T02:05:58.504Z,15.70
2022-10-24T02:08:30.558Z,15.60
2022-10-24T02:11:02.521Z,15.60
2022-10-24T02:13:32.582Z,15.70
2022-10-24T02:16:02.706Z,15.70
2022-10-24T02:18:31.018Z,15.70
2022-10-24T02:20:58.246Z,15.60
2022-10-24T02:23:32.518Z,15.50
2022-10-24T02:26:02.898Z,15.50
2022-10-24T02:28:37.670Z,15.40
2022-10-24T02:31:12.709Z,15.30
2022-10-24T02:33:41.124Z,15.30
2022-10-24T02:36:13.704Z,15.20
2022-10-24T02:38:44.252Z,15.20
2022-10-24T02:41:16.467Z,15.10
2022-10-24T02:43:46.339Z,15.10
2022-10-24T02:46:15.220Z,15.10
2022-10-24T02:48:47.662Z,15.10
2022-10-24T02:51:18.084Z,15.10
2022-10-24T02:53:46.291Z,15.10
2022-10-24T02:56:13.839Z,15.00
2022-10-24T02:58:41.347Z,15.00
2022-10-24T03:01:09.075Z,15.00
2022-10-24T03:03:36.476Z,15.00
2022-10-24T03:06:04.150Z,14.90
2022-10-24T03:08:31.497Z,14.90
2022-10-24T03:10:58.916Z,14.80
2022-10-24T03:13:26.182Z,14.70
2022-10-24T03:15:53.635Z,14.70
2022-10-24T03:18:20.909Z,14.70
2022-10-24T03:20:48.190Z,14.60
2022-10-24T03:23:16.656Z,14.60
2022-10-24T03:25:44.023Z,14.60
2022-10-24T03:28:11.440Z,14.60
2022-10-24T03:30:38.762Z,14.50
2022-10-24T03:33:05.985Z,14.50
2022-10-24T03:35:33.145Z,14.50
2022-10-24T03:38:00.511Z,14.50
2022-10-24T03:40:27.950Z,14.50
2022-10-24T03:42:55.228Z,14.50
2022-10-24T03:45:22.494Z,14.50
2022-10-24T03:47:49.813Z,14.50
2022-10-24T03:50:17.486Z,14.50
2022-10-24T03:52:45.176Z,14.50
2022-10-24T03:55:13.311Z,14.50
2022-10-24T03:57:40.686Z,14.50
2022-10-24T04:00:11.564Z,14.50
2022-10-24T04:02:40.312Z,14.50
2022-10-24T04:05:10.447Z,14.50
2022-10-24T04:07:37.862Z,14.50
2022-10-24T04:10:06.549Z,14.50
2022-10-24T04:12:34.165Z,14.50
2022-10-24T04:15:04.713Z,14.50
2022-10-24T04:17:32.654Z,14.50
2022-10-24T04:19:59.865Z,14.50
2022-10-24T04:22:27.203Z,14.40
2022-10-24T04:24:54.490Z,14.50
2022-10-24T04:27:21.744Z,14.40
2022-10-24T04:29:49.084Z,14.40
2022-10-24T04:32:16.367Z,14.50
2022-10-24T04:34:43.630Z,14.40
2022-10-24T04:37:10.993Z,14.50
2022-10-24T04:39:38.318Z,14.50
2022-10-24T04:42:05.591Z,14.50
2022-10-24T04:44:32.917Z,14.50
2022-10-24T04:47:00.236Z,14.50
2022-10-24T04:49:27.462Z,14.50
2022-10-24T04:51:54.687Z,14.50
2022-10-24T04:54:21.956Z,14.40
2022-10-24T04:56:49.318Z,14.40
2022-10-24T04:59:16.606Z,14.40
2022-10-24T05:01:43.916Z,14.40
2022-10-24T05:04:12.685Z,14.40
2022-10-24T05:06:42.711Z,14.40
2022-10-24T05:09:12.587Z,14.40
2022-10-24T05:11:39.833Z,14.40
2022-10-24T05:14:07.690Z,14.40
2022-10-24T05:16:34.998Z,14.30
2022-10-24T05:19:02.235Z,14.40
2022-10-24T05:21:29.516Z,14.40
2022-10-24T05:23:56.722Z,14.40
2022-10-24T05:26:23.980Z,14.40
2022-10-24T05:28:52.626Z,14.50
2022-10-24T05:31:20.350Z,14.50
2022-10-24T05:33:47.605Z,14.40
2022-10-24T05:36:15.055Z,14.40
2022-10-24T05:38:42.258Z,14.50
2022-10-24T05:41:09.525Z,14.50
2022-10-24T05:43:36.798Z,14.50
2022-10-24T05:46:04.427Z,14.50
2022-10-24T05:48:31.740Z,14.50
2022-10-24T05:50:59.520Z,14.50
2022-10-24T05:53:27.236Z,14.50
2022-10-24T05:55:54.494Z,14.50
2022-10-24T05:58:22.505Z,14.60
2022-10-24T06:00:53.809Z,14.60
2022-10-24T06:03:22.762Z,14.60
2022-10-24T06:05:50.952Z,14.60
2022-10-24T06:08:18.568Z,14.60
2022-10-24T06:10:50.696Z,14.70
2022-10-24T06:13:18.452Z,14.60
2022-10-24T06:15:45.920Z,14.70
2022-10-24T06:18:13.314Z,14.70
2022-10-24T06:20:40.844Z,14.70
2022-10-24T06:23:08.196Z,14.70
2022-10-24T06:25:35.537Z,14.80
2022-10-24T06:28:03.196Z,14.90
2022-10-24T06:30:30.591Z,14.90
2022-10-24T06:32:57.827Z,15.00
2022-10-24T06:35:25.463Z,15.10
2022-10-24T06:37:52.950Z,15.10
2022-10-24T06:40:20.394Z,15.10
2022-10-24T06:42:47.800Z,15.20
2022-10-24T06:45:16.050Z,15.20
2022-10-24T06:47:43.555Z,15.30
2022-10-24T06:50:11.217Z,15.40
2022-10-24T06:52:38.597Z,15.40
2022-10-24T06:55:06.530Z,15.50
2022-10-24T06:57:33.846Z,15.50
2022-10-24T07:00:01.196Z,15.60
2022-10-24T07:02:28.788Z,15.60
2022-10-24T07:04:58.031Z,15.70
2022-10-24T07:07:25.264Z,15.80
2022-10-24T07:09:57.970Z,15.90
2022-10-24T07:12:25.889Z,15.90
2022-10-24T07:14:53.421Z,16.10
2022-10-24T07:17:21.267Z,16.10
2022-10-24T07:19:55.608Z,16.20
2022-10-24T07:22:23.398Z,16.10
2022-10-24T07:24:56.405Z,16.20
2022-10-24T07:27:24.490Z,16.20
2022-10-24T07:29:51.865Z,16.20
2022-10-24T07:32:19.824Z,16.30
2022-10-24T07:34:47.971Z,16.20
2022-10-24T07:37:16.559Z,16.20
2022-10-24T07:39:46.665Z,15.90
2022-10-24T07:42:15.080Z,15.20
2022-10-24T07:44:42.510Z,14.60
2022-10-24T07:47:10.277Z,14.30
2022-10-24T07:49:38.609Z,14.10
2022-10-24T07:52:06.156Z,13.90
2022-10-24T07:54:36.457Z,13.90
2022-10-24T07:57:05.603Z,13.80
2022-10-24T07:59:48.022Z,13.80
2022-10-24T08:02:17.201Z,13.90
2022-10-24T08:04:44.847Z,14.00
2022-10-24T08:07:15.776Z,14.00
2022-10-24T08:09:45.835Z,14.00
2022-10-24T08:12:13.678Z,14.10
2022-10-24T08:14:41.878Z,14.10
2022-10-24T08:17:09.465Z,14.10
2022-10-24T08:19:37.036Z,14.10
2022-10-24T08:22:04.349Z,14.10
2022-10-24T08:24:31.622Z,14.20
2022-10-24T08:26:59.760Z,14.20
2022-10-24T08:29:26.987Z,14.30
2022-10-24T08:31:56.189Z,14.30
2022-10-24T08:34:23.505Z,14.30
2022-10-24T08:36:51.312Z,14.40
2022-10-24T08:39:19.164Z,14.40
2022-10-24T08:41:59.316Z,14.40
2022-10-24T08:44:42.315Z,14.50
2022-10-24T08:47:25.518Z,14.50
2022-10-24T08:50:17.396Z,14.60
2022-10-24T08:52:49.220Z,14.60
2022-10-24T08:55:48.252Z,14.60
2022-10-24T08:58:35.899Z,14.80
2022-10-24T09:01:08.438Z,14.90
2022-10-24T09:04:01.624Z,14.90
2022-10-24T09:06:31.683Z,15.00
2022-10-24T09:09:11.796Z,15.10
2022-10-24T09:12:03.136Z,15.20
2022-10-24T09:14:37.439Z,15.30
2022-10-24T09:17:22.784Z,15.30
2022-10-24T09:19:56.544Z,15.40
2022-10-24T09:22:27.388Z,15.40
2022-10-24T09:25:08.441Z,15.40
2022-10-24T09:27:38.900Z,15.40
2022-10-24T09:30:11.465Z,15.30
2022-10-24T09:32:38.946Z,15.30
2022-10-24T09:35:20.945Z,15.30
2022-10-24T09:38:11.421Z,15.20
2022-10-24T09:40:38.827Z,15.20
2022-10-24T09:43:24.204Z,15.30
2022-10-24T09:46:08.855Z,15.30
2022-10-24T09:48:46.396Z,15.30
2022-10-24T09:51:34.048Z,15.20
2022-10-24T09:54:30.216Z,15.20
2022-10-24T09:56:59.397Z,15.30
2022-10-24T09:59:32.410Z,15.30
2022-10-24T10:02:24.582Z,15.40
2022-10-24T10:05:04.330Z,15.50
2022-10-24T10:07:35.936Z,15.50
2022-10-24T10:10:06.886Z,15.60
2022-10-24T10:12:37.996Z,15.60
2022-10-24T10:15:35.287Z,15.70
2022-10-24T10:18:34.186Z,15.70
2022-10-24T10:21:17.997Z,15.80
2022-10-24T10:23:46.702Z,15.80
2022-10-24T10:26:41.547Z,15.80
2022-10-24T10:29:18.265Z,15.90
2022-10-24T10:31:48.748Z,15.90
2022-10-24T10:34:39.963Z,15.90
2022-10-24T10:37:30.934Z,15.90
2022-10-24T10:40:31.555Z,16.00
2022-10-24T10:42:58.652Z,16.00
2022-10-24T10:45:35.893Z,16.10
2022-10-24T10:48:11.671Z,16.20
2022-10-24T10:50:45.273Z,16.20
2022-10-24T10:53:36.756Z,16.30
2022-10-24T10:56:24.073Z,16.30
2022-10-24T10:59:15.680Z,16.40
2022-10-24T11:01:53.991Z,16.50
2022-10-24T11:04:49.806Z,16.50
2022-10-24T11:07:28.991Z,16.60
2022-10-24T11:10:09.648Z,16.60
2022-10-24T11:12:40.006Z,16.60
2022-10-24T11:15:10.005Z,16.60
2022-10-24T11:17:54.988Z,16.60
2022-10-24T11:20:44.008Z,16.60
2022-10-24T11:23:24.523Z,16.60
2022-10-24T11:26:02.944Z,16.60
2022-10-24T11:28:40.124Z,16.60
2022-10-24T11:31:23.552Z,16.60
2022-10-24T11:34:03.436Z,16.50
2022-10-24T11:36:59.919Z,16.50
2022-10-24T11:39:33.696Z,16.60
2022-10-24T11:42:03.852Z,16.70
2022-10-24T11:44:43.201Z,16.70
2022-10-24T11:47:25.534Z,16.70
2022-10-24T11:50:04.875Z,16.70
2022-10-24T11:52:38.982Z,16.70
2022-10-24T11:55:22.182Z,16.80
2022-10-24T11:57:54.188Z,16.80
2022-10-24T12:00:28.160Z,16.70
2022-10-24T12:03:08.497Z,16.70
2022-10-24T12:06:11.564Z,16.70
2022-10-24T12:08:59.984Z,16.70
2022-10-24T12:11:58.506Z,16.70
2022-10-24T12:14:42.933Z,16.80
2022-10-24T12:17:17.063Z,16.90
2022-10-24T12:19:45.828Z,17.00
2022-10-24T12:22:23.874Z,16.90
2022-10-24T12:25:22.583Z,16.90
2022-10-24T12:27:58.973Z,16.90
2022-10-24T12:30:28.766Z,16.90
2022-10-24T12:32:56.049Z,17.00
2022-10-24T12:35:46.072Z,17.00
2022-10-24T12:38:39.985Z,17.00
2022-10-24T12:41:27.162Z,17.10
2022-10-24T12:44:23.339Z,17.10
2022-10-24T12:46:50.506Z,17.20
2022-10-24T12:49:30.284Z,17.10
2022-10-24T12:51:58.615Z,17.10
2022-10-24T12:54:46.334Z,17.00
2022-10-24T12:57:13.705Z,17.00
2022-10-24T12:59:52.914Z,17.00
2022-10-24T13:02:20.134Z,16.90
2022-10-24T13:05:06.461Z,16.90
2022-10-24T13:07:55.125Z,16.90
2022-10-24T13:10:28.880Z,16.90
2022-10-24T13:13:02.842Z,16.90
2022-10-24T13:15:37.609Z,16.80
2022-10-24T13:18:16.790Z,16.70
2022-10-24T13:20:45.905Z,16.80
2022-10-24T13:23:18.328Z,16.70
2022-10-24T13:25:46.698Z,16.70
2022-10-24T13:28:20.047Z,16.60
2022-10-24T13:31:11.070Z,16.50
2022-10-24T13:33:46.001Z,16.40
2022-10-24T13:36:18.034Z,16.30
2022-10-24T13:39:04.996Z,16.30
2022-10-24T13:41:45.873Z,16.20
2022-10-24T13:44:22.947Z,16.20
2022-10-24T13:46:54.901Z,16.10
2022-10-24T13:49:52.057Z,16.10
2022-10-24T13:52:26.754Z,16.10
2022-10-24T13:55:02.487Z,16.20
2022-10-24T13:57:37.997Z,16.30
2022-10-24T14:00:08.998Z,16.50
2022-10-24T14:02:41.712Z,16.50
2022-10-24T14:05:44.530Z,16.50
2022-10-24T14:08:30.758Z,16.50
2022-10-24T14:11:03.568Z,16.60
2022-10-24T14:13:36.826Z,17.00
2022-10-24T14:16:06.988Z,17.20
2022-10-24T14:18:37.676Z,17.50
2022-10-24T14:21:05.605Z,17.60
2022-10-24T14:23:36.388Z,17.60
2022-10-24T14:26:11.130Z,17.60
2022-10-24T14:28:45.150Z,17.60
2022-10-24T14:31:35.128Z,17.70
2022-10-24T14:34:06.164Z,18.50
2022-10-24T14:36:38.109Z,19.20
2022-10-24T14:39:05.730Z,19.30
2022-10-24T14:41:40.894Z,19.10
2022-10-24T14:44:15.094Z,18.80
2022-10-24T14:46:45.507Z,18.70
2022-10-24T14:49:28.153Z,18.70
2022-10-24T14:52:07.902Z,18.60
2022-10-24T14:54:36.073Z,18.50
2022-10-24T14:57:09.187Z,18.50
2022-10-24T14:59:43.514Z,18.10
2022-10-24T15:02:22.442Z,17.90
2022-10-24T15:04:52.019Z,17.70
2022-10-24T15:07:32.152Z,17.50
2022-10-24T15:10:22.117Z,17.40
2022-10-24T15:13:00.529Z,17.20
2022-10-24T15:15:34.781Z,17.10
2022-10-24T15:18:18.880Z,17.00
2022-10-24T15:20:48.346Z,16.90
2022-10-24T15:23:36.923Z,16.80
2022-10-24T15:26:18.756Z,16.60
2022-10-24T15:28:53.626Z,16.50
2022-10-24T15:31:21.678Z,16.50
2022-10-24T15:33:49.435Z,16.40
2022-10-24T15:36:31.370Z,16.30
2022-10-24T15:39:02.310Z,16.30
2022-10-24T15:41:29.631Z,16.80
2022-10-24T15:43:58.198Z,17.70
2022-10-24T15:46:26.462Z,18.40
2022-10-24T15:48:53.816Z,18.70
2022-10-24T15:51:24.026Z,19.00
2022-10-24T15:53:52.834Z,19.10
2022-10-24T15:56:20.055Z,19.20
2022-10-24T16:01:30.300Z,18.50
2022-10-24T16:03:58.099Z,18.00
2022-10-24T16:06:26.276Z,17.50
2022-10-24T16:08:54.377Z,17.10
2022-10-24T16:11:21.946Z,16.80
2022-10-24T16:13:49.287Z,16.60
2022-10-24T16:16:16.571Z,16.30
2022-10-24T16:18:43.952Z,16.20
2022-10-24T16:21:18.545Z,16.00
2022-10-24T16:23:46.513Z,15.90
2022-10-24T16:26:14.203Z,15.80
2022-10-24T16:28:42.045Z,15.60
2022-10-24T16:31:09.559Z,15.50
2022-10-24T16:33:36.790Z,15.50
2022-10-24T16:36:04.231Z,15.30
2022-10-24T16:38:31.712Z,15.30
2022-10-24T16:41:00.846Z,15.30
2022-10-24T16:43:28.617Z,15.30
2022-10-24T16:46:00.936Z,15.30
2022-10-24T16:48:28.672Z,15.20
2022-10-24T16:50:56.370Z,15.10
2022-10-24T16:53:24.233Z,15.10
2022-10-24T16:55:54.714Z,15.10
2022-10-24T16:58:23.156Z,15.10
2022-10-24T17:00:50.452Z,15.10
2022-10-24T17:03:19.320Z,15.00
2022-10-24T17:05:49.796Z,15.00
2022-10-24T17:08:17.015Z,14.90
2022-10-24T17:10:44.322Z,15.00
2022-10-24T17:13:11.635Z,14.90
2022-10-24T17:15:39.919Z,14.90
2022-10-24T17:18:07.590Z,14.90
2022-10-24T17:20:35.227Z,14.90
2022-10-24T17:23:05.642Z,14.80
2022-10-24T17:25:33.961Z,14.80
2022-10-24T17:28:01.413Z,14.70
2022-10-24T17:30:32.277Z,14.80
2022-10-24T17:33:00.023Z,14.70
2022-10-24T17:35:27.578Z,14.70
2022-10-24T17:38:22.335Z,14.60
2022-10-24T17:40:50.741Z,14.60
2022-10-24T17:43:25.556Z,14.60
2022-10-24T17:45:56.100Z,14.60
2022-10-24T17:48:24.699Z,14.60
2022-10-24T17:50:55.790Z,14.50
2022-10-24T17:53:23.137Z,14.50
2022-10-24T17:55:50.484Z,14.50
2022-10-24T17:58:17.791Z,14.50
2022-10-24T18:00:45.586Z,14.50
2022-10-24T18:03:13.392Z,14.40
2022-10-24T18:05:41.004Z,14.40
2022-10-24T18:08:09.884Z,14.30
2022-10-24T18:10:38.876Z,14.30
2022-10-24T18:13:07.391Z,14.40
2022-10-24T18:15:35.517Z,14.30
2022-10-24T18:18:02.749Z,14.30
2022-10-24T18:20:30.115Z,14.30
2022-10-24T18:22:58.358Z,14.30
2022-10-24T18:25:25.690Z,14.30
2022-10-24T18:27:53.092Z,14.30
2022-10-24T18:30:20.553Z,14.30
2022-10-24T18:32:48.397Z,14.20
2022-10-24T18:35:16.033Z,14.20
2022-10-24T18:37:43.404Z,14.20
2022-10-24T18:40:11.377Z,14.20
2022-10-24T18:42:58.695Z,14.30
2022-10-24T18:45:27.402Z,14.30
2022-10-24T18:47:55.329Z,14.30
2022-10-24T18:50:24.837Z,14.20
2022-10-24T18:52:58.829Z,14.20
2022-10-24T18:55:28.882Z,14.30
2022-10-24T18:57:56.880Z,14.30
2022-10-24T19:00:27.457Z,14.30
2022-10-24T19:03:12.732Z,14.30
2022-10-24T19:05:51.986Z,14.30
2022-10-24T19:08:24.533Z,14.30
2022-10-24T19:10:54.604Z,14.20
2022-10-24T19:13:25.768Z,14.20
2022-10-24T19:16:01.586Z,14.30
2022-10-24T19:18:31.570Z,14.30
2022-10-24T19:21:00.775Z,14.30
2022-10-24T19:23:28.150Z,14.30
2022-10-24T19:25:55.551Z,14.20
2022-10-24T19:28:23.232Z,14.20
2022-10-24T19:30:50.591Z,14.20
2022-10-24T19:33:18.870Z,14.20
2022-10-24T19:35:49.282Z,14.20
2022-10-24T19:38:18.043Z,14.30
2022-10-24T19:40:46.212Z,14.20
2022-10-24T19:43:14.064Z,14.20
2022-10-24T19:45:49.901Z,14.20
2022-10-24T19:48:23.491Z,14.20
2022-10-24T19:50:51.756Z,14.20
2022-10-24T19:53:19.672Z,14.20
2022-10-24T19:55:46.928Z,14.30
2022-10-24T19:58:20.100Z,14.30
2022-10-24T20:00:47.584Z,14.30
2022-10-24T20:03:16.228Z,14.30
2022-10-24T20:05:43.963Z,14.30
2022-10-24T20:08:11.326Z,14.30
2022-10-24T20:10:38.658Z,14.20
2022-10-24T20:13:05.962Z,14.20
2022-10-24T20:15:33.154Z,14.30
2022-10-24T20:18:00.448Z,14.30
2022-10-24T20:20:27.721Z,14.30
2022-10-24T20:22:54.960Z,14.30
2022-10-24T20:25:22.232Z,14.30
2022-10-24T20:27:49.476Z,14.30
2022-10-24T20:30:16.954Z,14.30
2022-10-24T20:32:44.271Z,14.30
2022-10-24T20:35:12.614Z,14.30
2022-10-24T20:37:40.008Z,14.30
2022-10-24T20:40:08.057Z,14.20
2022-10-24T20:42:35.306Z,14.20
2022-10-24T20:45:02.642Z,14.20
2022-10-24T20:47:29.889Z,14.10
2022-10-24T20:49:57.141Z,14.10
2022-10-24T20:52:24.454Z,14.00
2022-10-24T20:54:51.784Z,14.00
2022-10-24T20:57:18.998Z,14.00
2022-10-24T20:59:46.249Z,14.00
2022-10-24T21:02:13.658Z,13.90
2022-10-24T21:04:40.912Z,13.90
2022-10-24T21:07:08.252Z,13.90
2022-10-24T21:09:35.527Z,13.90
2022-10-24T21:12:02.949Z,13.90
2022-10-24T21:14:30.230Z,13.90
2022-10-24T21:16:57.510Z,13.90
2022-10-24T21:19:24.925Z,13.90
2022-10-24T21:21:52.385Z,13.90
2022-10-24T21:24:19.714Z,13.90
2022-10-24T21:26:46.963Z,13.90
2022-10-24T21:29:32.145Z,14.00
2022-10-24T21:32:00.246Z,14.00
2022-10-24T21:34:30.129Z,13.90
2022-10-24T21:37:00.541Z,13.90
2022-10-24T21:39:27.906Z,13.90
2022-10-24T21:41:55.120Z,13.90
2022-10-24T21:44:23.484Z,13.80
2022-10-24T21:46:54.553Z,13.80
2022-10-24T21:49:21.933Z,13.80
2022-10-24T21:51:49.553Z,13.80
2022-10-24T21:54:22.606Z,13.70
2022-10-24T21:56:50.524Z,13.70
2022-10-24T21:59:20.297Z,13.60
2022-10-24T22:01:50.054Z,13.50
2022-10-24T22:04:18.441Z,13.50
2022-10-24T22:06:46.315Z,13.50
2022-10-24T22:09:16.896Z,13.50
2022-10-24T22:11:45.217Z,13.40
2022-10-24T22:14:15.567Z,13.40
2022-10-24T22:16:43.596Z,13.50
2022-10-24T22:19:12.187Z,13.50
2022-10-24T22:21:42.637Z,13.50
2022-10-24T22:24:13.032Z,13.50
2022-10-24T22:26:41.254Z,13.50
2022-10-24T22:29:13.348Z,13.60
2022-10-24T22:31:40.945Z,13.60
2022-10-24T22:34:09.210Z,13.60
2022-10-24T22:36:57.020Z,13.60
2022-10-24T22:39:25.804Z,13.60
2022-10-24T22:41:53.912Z,13.60
2022-10-24T22:44:22.025Z,13.60
2022-10-24T22:47:10.927Z,13.60
2022-10-24T22:49:44.420Z,13.50
2022-10-24T22:52:12.475Z,13.50
2022-10-24T22:54:40.313Z,13.40
2022-10-24T22:57:08.092Z,13.50
2022-10-24T22:59:35.770Z,13.40
2022-10-24T23:02:32.027Z,13.40
2022-10-24T23:05:10.132Z,13.40
2022-10-24T23:08:09.689Z,13.30
2022-10-24T23:10:39.686Z,13.30
2022-10-24T23:13:07.447Z,13.30
2022-10-24T23:15:35.178Z,13.20
2022-10-24T23:18:02.614Z,13.20
2022-10-24T23:20:36.948Z,13.10
2022-10-24T23:23:28.124Z,13.00
2022-10-24T23:26:03.945Z,12.90
2022-10-24T23:28:34.574Z,12.90
2022-10-24T23:33:29.837Z,12.90
2022-10-24T23:36:00.582Z,12.80
2022-10-24T23:38:28.427Z,12.80
2022-10-24T23:40:56.158Z,12.70
2022-10-24T23:43:23.832Z,12.70
2022-10-24T23:45:56.453Z,12.70
2022-10-24T23:48:48.894Z,12.60
2022-10-24T23:51:27.593Z,12.50
2022-10-24T23:53:56.816Z,12.50
2022-10-24T23:56:26.959Z,12.60
2022-10-24T23:58:55.512Z,12.50
